Time;durP1;ratioP1;P1;durP2;ratioP2;P2;SDS_P1;SDS_P2;PMS_P1;PMS_P2;Temp;Humidity;BMP_temperature;BMP_pressure;BME280_temperature;BME280_humidity;BME280_pressure;Samples;Min_cycle;Max_cycle;Signal;HPM_P1;HPM_P2
2022/03/29 00:01:26;;;;;;;14.80;9.20;;;;;;;;;;5111904;28;20476;-63
2022/03/29 00:03:51;;;;;;;13.52;9.13;;;;;;;;;;5113593;28;20464;-63
2022/03/29 00:06:16;;;;;;;14.40;9.07;;;;;;;;;;5114425;28;20468;-64
2022/03/29 00:08:41;;;;;;;13.75;9.35;;;;;;;;;;5098370;28;20034;-63
2022/03/29 00:11:07;;;;;;;14.13;9.68;;;;;;;;;;5110164;28;20030;-64
2022/03/29 00:13:32;;;;;;;14.05;9.40;;;;;;;;;;5111085;28;20073;-63
2022/03/29 00:15:57;;;;;;;14.98;10.18;;;;;;;;;;5094325;28;20020;-64
2022/03/29 00:18:22;;;;;;;20.10;13.02;;;;;;;;;;5111023;28;20076;-64
2022/03/29 00:20:47;;;;;;;21.80;15.57;;;;;;;;;;5113097;28;20078;-64
2022/03/29 00:23:13;;;;;;;21.23;13.18;;;;;;;;;;5110711;28;20483;-64
2022/03/29 00:25:38;;;;;;;20.75;14.15;;;;;;;;;;5112115;28;20053;-64
2022/03/29 00:28:03;;;;;;;20.58;12.90;;;;;;;;;;5111456;28;20020;-64
2022/03/29 00:30:28;;;;;;;16.75;12.13;;;;;;;;;;5111264;28;20027;-64
2022/03/29 00:32:53;;;;;;;20.75;11.63;;;;;;;;;;5099898;28;20031;-64
2022/03/29 00:35:19;;;;;;;19.05;12.77;;;;;;;;;;5103900;28;20027;-64
2022/03/29 00:37:44;;;;;;;15.80;11.10;;;;;;;;;;5097147;28;20078;-64
2022/03/29 00:40:11;;;;;;;16.70;10.85;;;;;;;;;;5094134;28;20103;-64
2022/03/29 00:42:36;;;;;;;13.38;9.38;;;;;;;;;;5099227;28;20020;-64
2022/03/29 00:45:02;;;;;;;14.93;9.32;;;;;;;;;;5112248;28;20034;-64
2022/03/29 00:47:27;;;;;;;14.93;9.68;;;;;;;;;;5098954;28;20020;-64
2022/03/29 00:49:52;;;;;;;14.38;10.18;;;;;;;;;;5101591;28;20109;-64
2022/03/29 00:52:17;;;;;;;14.77;9.75;;;;;;;;;;5109892;28;20035;-64
2022/03/29 00:54:44;;;;;;;13.32;9.35;;;;;;;;;;5092839;28;20111;-64
2022/03/29 00:57:11;;;;;;;13.77;9.70;;;;;;;;;;5104040;28;20047;-63
2022/03/29 00:59:36;;;;;;;13.75;9.52;;;;;;;;;;5111281;28;20027;-63
2022/03/29 01:02:01;;;;;;;14.25;9.25;;;;;;;;;;5101015;28;20024;-63
2022/03/29 01:04:27;;;;;;;13.02;9.85;;;;;;;;;;5097209;28;20028;-63
2022/03/29 01:06:53;;;;;;;14.20;9.38;;;;;;;;;;5105670;28;20384;-63
2022/03/29 01:09:18;;;;;;;14.57;9.48;;;;;;;;;;5104704;28;20556;-62
2022/03/29 01:11:44;;;;;;;11.80;9.65;;;;;;;;;;5104584;28;20160;-62
2022/03/29 01:14:09;;;;;;;14.32;10.15;;;;;;;;;;5099948;28;20069;-62
2022/03/29 01:19:19;;;;;;;13.65;9.32;;;;;;;;;;5110762;28;20384;-62
2022/03/29 01:21:54;;;;;;;14.43;9.88;;;;;;;;;;5103413;28;20479;-62
2022/03/29 01:24:20;;;;;;;13.65;9.25;;;;;;;;;;5106926;28;20015;-62
2022/03/29 01:26:46;;;;;;;14.50;9.65;;;;;;;;;;5106953;28;20015;-63
2022/03/29 01:29:11;;;;;;;13.20;8.82;;;;;;;;;;5111170;28;20064;-63
2022/03/29 01:31:37;;;;;;;15.30;10.30;;;;;;;;;;5106849;28;20481;-63
2022/03/29 01:34:04;;;;;;;14.02;9.40;;;;;;;;;;5105394;28;20023;-62
2022/03/29 01:36:29;;;;;;;17.80;9.98;;;;;;;;;;5110916;28;20099;-63
2022/03/29 01:38:54;;;;;;;14.52;9.95;;;;;;;;;;5105102;28;20169;-63
2022/03/29 01:41:19;;;;;;;16.58;9.32;;;;;;;;;;5102104;28;20016;-63
2022/03/29 01:43:44;;;;;;;14.25;9.60;;;;;;;;;;5108847;28;20421;-63
2022/03/29 01:46:12;;;;;;;16.35;10.63;;;;;;;;;;5106666;28;20023;-62
2022/03/29 01:48:37;;;;;;;17.17;10.75;;;;;;;;;;5109528;28;20398;-63
2022/03/29 01:51:02;;;;;;;17.05;10.52;;;;;;;;;;5103178;28;20015;-62
2022/03/29 01:53:28;;;;;;;17.33;10.88;;;;;;;;;;5091684;28;20074;-62
2022/03/29 01:56:02;;;;;;;19.23;11.57;;;;;;;;;;5096166;28;20043;-62
2022/03/29 01:58:29;;;;;;;19.20;12.98;;;;;;;;;;5093874;28;20101;-63
2022/03/29 02:00:55;;;;;;;20.83;13.80;;;;;;;;;;5102588;28;20020;-63
2022/03/29 02:03:20;;;;;;;18.83;12.40;;;;;;;;;;5108623;28;20023;-63
2022/03/29 02:05:45;;;;;;;21.30;12.00;;;;;;;;;;5108548;28;20114;-63
2022/03/29 02:08:11;;;;;;;19.77;11.48;;;;;;;;;;5093906;28;20032;-62
2022/03/29 02:10:37;;;;;;;17.40;11.07;;;;;;;;;;5099694;28;20077;-63
2022/03/29 02:13:02;;;;;;;17.63;11.05;;;;;;;;;;5102657;28;20028;-61
2022/03/29 02:15:27;;;;;;;17.45;10.30;;;;;;;;;;5106881;28;20088;-61
2022/03/29 02:17:53;;;;;;;15.05;10.02;;;;;;;;;;5108528;28;20120;-62
2022/03/29 02:20:19;;;;;;;16.70;10.85;;;;;;;;;;5110763;28;20086;-62
2022/03/29 02:22:44;;;;;;;16.30;11.15;;;;;;;;;;5109660;28;20027;-62
2022/03/29 02:25:12;;;;;;;23.30;13.70;;;;;;;;;;5095912;28;20024;-62
2022/03/29 02:27:38;;;;;;;20.50;11.80;;;;;;;;;;5105098;28;20106;-62
2022/03/29 02:30:04;;;;;;;18.85;11.50;;;;;;;;;;5106917;28;20109;-62
2022/03/29 02:32:30;;;;;;;18.77;10.98;;;;;;;;;;5112329;28;20492;-63
2022/03/29 02:34:56;;;;;;;21.20;11.82;;;;;;;;;;5109978;28;20031;-62
2022/03/29 02:37:21;;;;;;;17.70;10.98;;;;;;;;;;5112707;28;20085;-63
2022/03/29 02:39:46;;;;;;;17.75;10.68;;;;;;;;;;5108679;28;20399;-62
2022/03/29 02:42:11;;;;;;;19.58;12.15;;;;;;;;;;5110189;28;20387;-63
2022/03/29 02:44:36;;;;;;;20.65;13.15;;;;;;;;;;5102157;28;20055;-63
2022/03/29 02:47:02;;;;;;;18.52;12.05;;;;;;;;;;5100360;28;20563;-62
2022/03/29 02:49:27;;;;;;;20.92;12.55;;;;;;;;;;5104580;28;20028;-62
2022/03/29 02:51:53;;;;;;;18.98;11.98;;;;;;;;;;5111849;28;20540;-62
2022/03/29 02:54:19;;;;;;;17.42;11.13;;;;;;;;;;5107402;28;21858;-62
2022/03/29 02:56:44;;;;;;;19.33;11.95;;;;;;;;;;5107335;28;20034;-62
2022/03/29 02:59:09;;;;;;;16.17;11.07;;;;;;;;;;5111708;28;20039;-62
2022/03/29 03:01:35;;;;;;;19.02;11.65;;;;;;;;;;5107532;28;20024;-62
2022/03/29 03:04:00;;;;;;;19.70;13.00;;;;;;;;;;5108295;28;20077;-62
2022/03/29 03:06:25;;;;;;;18.98;12.00;;;;;;;;;;5114045;28;20456;-62
2022/03/29 03:08:50;;;;;;;16.70;10.90;;;;;;;;;;5113844;28;20027;-62
2022/03/29 03:11:15;;;;;;;19.35;10.98;;;;;;;;;;5104492;28;20064;-61
2022/03/29 03:13:41;;;;;;;17.85;11.85;;;;;;;;;;5100016;28;20215;-62
2022/03/29 03:16:06;;;;;;;18.88;12.20;;;;;;;;;;5107971;28;20027;-62
2022/03/29 03:18:32;;;;;;;19.17;12.95;;;;;;;;;;5111343;28;20020;-62
2022/03/29 03:20:58;;;;;;;20.25;12.85;;;;;;;;;;5102484;28;20028;-62
2022/03/29 03:23:24;;;;;;;19.58;12.02;;;;;;;;;;5095439;28;20061;-62
2022/03/29 03:25:50;;;;;;;22.60;12.48;;;;;;;;;;5104699;28;20023;-62
2022/03/29 03:28:15;;;;;;;22.42;13.18;;;;;;;;;;5112832;28;20088;-62
2022/03/29 03:30:40;;;;;;;21.90;13.40;;;;;;;;;;5115367;28;20106;-62
2022/03/29 03:33:06;;;;;;;21.20;12.93;;;;;;;;;;5114948;28;20057;-62
2022/03/29 03:35:31;;;;;;;21.73;13.80;;;;;;;;;;5105320;28;20024;-62
2022/03/29 03:37:56;;;;;;;22.42;13.38;;;;;;;;;;5110084;28;20379;-62
2022/03/29 03:40:21;;;;;;;24.17;13.57;;;;;;;;;;5113337;28;20083;-62
2022/03/29 03:42:47;;;;;;;22.52;14.07;;;;;;;;;;5115225;28;20023;-62
2022/03/29 03:45:12;;;;;;;22.52;14.40;;;;;;;;;;5114455;28;20027;-62
2022/03/29 03:47:37;;;;;;;22.38;14.38;;;;;;;;;;5110948;28;20023;-62
2022/03/29 03:50:04;;;;;;;24.80;14.20;;;;;;;;;;5103858;28;20032;-62
2022/03/29 03:52:29;;;;;;;22.83;14.60;;;;;;;;;;5109264;28;20063;-62
2022/03/29 03:54:55;;;;;;;24.83;14.43;;;;;;;;;;5104299;28;20502;-62
2022/03/29 03:57:21;;;;;;;26.23;15.70;;;;;;;;;;5099907;28;20052;-62
2022/03/29 03:59:48;;;;;;;24.85;15.43;;;;;;;;;;5111532;28;20046;-62
2022/03/29 04:02:13;;;;;;;24.77;14.85;;;;;;;;;;5111521;28;20055;-62
2022/03/29 04:04:38;;;;;;;26.83;15.85;;;;;;;;;;5113069;27;20059;-62
2022/03/29 04:07:04;;;;;;;28.45;17.20;;;;;;;;;;5110610;28;20525;-62
2022/03/29 04:09:29;;;;;;;24.25;15.80;;;;;;;;;;5102795;28;20369;-61
2022/03/29 04:11:54;;;;;;;26.20;16.33;;;;;;;;;;5098964;28;20035;-62
2022/03/29 04:14:19;;;;;;;26.15;16.73;;;;;;;;;;5110425;28;20123;-62
2022/03/29 04:16:45;;;;;;;29.35;17.23;;;;;;;;;;5098385;28;20024;-62
2022/03/29 04:19:10;;;;;;;28.15;17.00;;;;;;;;;;5097161;28;20115;-61
2022/03/29 04:21:35;;;;;;;28.45;16.90;;;;;;;;;;5114470;28;20015;-62
2022/03/29 04:24:01;;;;;;;24.70;16.00;;;;;;;;;;5094315;28;20388;-62
2022/03/29 04:26:26;;;;;;;28.98;18.10;;;;;;;;;;5103082;28;20157;-62
2022/03/29 04:28:51;;;;;;;26.35;16.55;;;;;;;;;;5110232;28;20480;-62
2022/03/29 04:31:17;;;;;;;30.05;17.48;;;;;;;;;;5094004;28;20016;-62
2022/03/29 04:33:45;;;;;;;28.90;17.00;;;;;;;;;;5109895;28;20125;-61
2022/03/29 04:36:10;;;;;;;29.83;16.70;;;;;;;;;;5113990;28;20106;-61
2022/03/29 04:38:35;;;;;;;27.20;17.23;;;;;;;;;;5113872;28;20502;-61
2022/03/29 04:41:00;;;;;;;27.48;16.92;;;;;;;;;;5113059;28;20020;-63
2022/03/29 04:43:26;;;;;;;27.25;17.15;;;;;;;;;;5113203;28;20468;-63
2022/03/29 04:45:51;;;;;;;29.90;18.10;;;;;;;;;;5098118;28;20070;-62
2022/03/29 04:48:16;;;;;;;30.60;17.33;;;;;;;;;;5113307;28;20054;-63
2022/03/29 04:50:41;;;;;;;30.27;18.38;;;;;;;;;;5104010;28;20035;-63
2022/03/29 04:53:07;;;;;;;30.08;17.95;;;;;;;;;;5112764;28;20036;-63
2022/03/29 04:55:32;;;;;;;29.70;17.13;;;;;;;;;;5104035;28;20058;-63
2022/03/29 04:58:00;;;;;;;27.17;16.00;;;;;;;;;;5108826;28;20492;-63
2022/03/29 05:00:25;;;;;;;29.98;17.80;;;;;;;;;;5108049;28;20028;-63
2022/03/29 05:02:50;;;;;;;29.83;17.95;;;;;;;;;;5082201;28;20434;-63
2022/03/29 05:05:16;;;;;;;29.73;18.17;;;;;;;;;;5105989;28;20434;-62
2022/03/29 05:07:41;;;;;;;25.63;16.63;;;;;;;;;;5095885;28;20026;-62
2022/03/29 05:10:10;;;;;;;31.65;18.50;;;;;;;;;;5107907;28;20036;-61
2022/03/29 05:12:39;;;;;;;28.13;17.42;;;;;;;;;;5096168;28;20023;-61
2022/03/29 05:15:05;;;;;;;30.08;18.50;;;;;;;;;;5110441;28;20551;-63
2022/03/29 05:17:31;;;;;;;31.63;19.45;;;;;;;;;;5095564;28;20472;-62
2022/03/29 05:19:56;;;;;;;30.50;17.73;;;;;;;;;;5101148;28;20027;-62
2022/03/29 05:22:21;;;;;;;28.35;17.48;;;;;;;;;;5099779;28;20084;-62
2022/03/29 05:24:46;;;;;;;31.85;18.40;;;;;;;;;;5111259;28;20154;-61
2022/03/29 05:27:12;;;;;;;31.25;18.58;;;;;;;;;;5109046;28;20024;-63
2022/03/29 05:29:37;;;;;;;34.97;19.10;;;;;;;;;;5107167;28;20034;-62
2022/03/29 05:32:02;;;;;;;31.48;19.40;;;;;;;;;;5104378;28;20045;-62
2022/03/29 05:34:27;;;;;;;33.53;19.35;;;;;;;;;;5110058;28;20030;-63
2022/03/29 05:36:53;;;;;;;29.65;17.65;;;;;;;;;;5104605;28;20027;-63
2022/03/29 05:39:18;;;;;;;32.55;18.90;;;;;;;;;;5110553;28;20403;-63
2022/03/29 05:41:43;;;;;;;30.38;17.60;;;;;;;;;;5096766;28;20413;-63
2022/03/29 05:44:09;;;;;;;30.25;17.23;;;;;;;;;;5107311;28;20069;-63
2022/03/29 05:49:20;;;;;;;31.77;18.65;;;;;;;;;;5108867;28;20124;-62
2022/03/29 05:51:46;;;;;;;30.88;18.55;;;;;;;;;;5092722;28;20028;-62
2022/03/29 05:54:11;;;;;;;30.42;19.10;;;;;;;;;;5111520;28;20184;-62
2022/03/29 05:56:36;;;;;;;31.48;19.67;;;;;;;;;;5101429;28;20026;-63
2022/03/29 05:59:01;;;;;;;30.77;18.70;;;;;;;;;;5100670;28;20547;-63
2022/03/29 06:01:26;;;;;;;32.72;18.33;;;;;;;;;;5106797;28;20043;-62
2022/03/29 06:03:52;;;;;;;26.80;17.25;;;;;;;;;;5096511;28;20984;-62
2022/03/29 06:06:17;;;;;;;28.58;18.17;;;;;;;;;;5104067;28;20026;-62
2022/03/29 06:08:42;;;;;;;29.40;18.77;;;;;;;;;;5099117;28;20365;-62
2022/03/29 06:11:08;;;;;;;30.77;19.33;;;;;;;;;;5110309;28;20019;-62
2022/03/29 06:13:33;;;;;;;29.10;19.20;;;;;;;;;;5100384;28;20016;-62
2022/03/29 06:15:59;;;;;;;31.98;19.77;;;;;;;;;;5108814;28;20430;-63
2022/03/29 06:18:24;;;;;;;28.67;18.92;;;;;;;;;;5107602;28;20434;-63
2022/03/29 06:20:49;;;;;;;31.73;20.00;;;;;;;;;;5111305;28;20387;-63
2022/03/29 06:23:16;;;;;;;30.00;19.23;;;;;;;;;;5112404;28;20024;-63
2022/03/29 06:25:41;;;;;;;34.25;20.75;;;;;;;;;;5100125;28;20012;-63
2022/03/29 06:28:06;;;;;;;32.00;20.10;;;;;;;;;;5103545;28;20464;-63
2022/03/29 06:30:32;;;;;;;33.15;20.40;;;;;;;;;;5113869;28;20019;-63
2022/03/29 06:32:58;;;;;;;31.30;20.92;;;;;;;;;;5119372;27;20034;-63
2022/03/29 06:35:24;;;;;;;35.20;21.75;;;;;;;;;;5118766;27;20034;-63
2022/03/29 06:37:55;;;;;;;37.67;24.45;;;;;;;;;;5118912;27;20044;-63
2022/03/29 06:40:21;;;;;;;39.13;24.45;;;;;;;;;;5113755;27;20034;-63
2022/03/29 06:42:47;;;;;;;41.00;24.85;;;;;;;;;;5097496;28;20020;-63
2022/03/29 06:45:12;;;;;;;39.00;25.55;;;;;;;;;;5116507;28;20041;-63
2022/03/29 06:47:37;;;;;;;42.05;24.58;;;;;;;;;;5102889;28;20450;-62
2022/03/29 06:50:04;;;;;;;43.45;25.65;;;;;;;;;;5117696;27;20467;-63
2022/03/29 06:52:39;;;;;;;38.25;23.77;;;;;;;;;;5108796;28;20550;-63
2022/03/29 06:55:04;;;;;;;;;;;;;;;;;;5102334;28;20055;-63
2022/03/29 06:57:30;;;;;;;47.53;29.67;;;;;;;;;;5109231;28;19958;-62
2022/03/29 06:59:55;;;;;;;41.05;25.55;;;;;;;;;;5117596;28;20055;-62
2022/03/29 07:02:20;;;;;;;44.05;26.23;;;;;;;;;;5111309;27;20055;-62
2022/03/29 07:04:46;;;;;;;44.13;26.65;;;;;;;;;;5101790;28;20076;-63
2022/03/29 07:07:11;;;;;;;44.40;28.20;;;;;;;;;;5098728;28;20063;-62
2022/03/29 07:12:21;;;;;;;47.78;27.42;;;;;;;;;;5104214;28;20106;-63
2022/03/29 07:14:46;;;;;;;52.00;29.55;;;;;;;;;;5110834;28;20030;-62
2022/03/29 07:17:13;;;;;;;47.90;27.58;;;;;;;;;;5098315;28;20455;-63
2022/03/29 07:19:38;;;;;;;47.17;27.83;;;;;;;;;;5097750;28;20077;-62
2022/03/29 07:22:04;;;;;;;48.97;29.55;;;;;;;;;;5098755;28;20028;-63
2022/03/29 07:24:30;;;;;;;51.03;29.15;;;;;;;;;;5110801;28;20024;-62
2022/03/29 07:26:55;;;;;;;47.88;28.63;;;;;;;;;;5107296;28;20043;-63
2022/03/29 07:29:20;;;;;;;49.05;28.67;;;;;;;;;;5106889;27;20060;-62
2022/03/29 07:31:46;;;;;;;49.45;30.13;;;;;;;;;;5103712;28;20597;-63
2022/03/29 07:34:11;;;;;;;51.42;30.20;;;;;;;;;;5104613;28;20035;-64
2022/03/29 07:36:36;;;;;;;50.17;30.02;;;;;;;;;;5103652;28;20047;-64
2022/03/29 07:39:02;;;;;;;53.20;30.38;;;;;;;;;;5114542;28;20063;-64
2022/03/29 07:41:27;;;;;;;56.85;33.25;;;;;;;;;;5105406;27;20349;-64
2022/03/29 07:43:54;;;;;;;56.65;32.40;;;;;;;;;;5108465;28;20019;-64
2022/03/29 07:46:19;;;;;;;56.30;33.33;;;;;;;;;;5110475;28;20103;-65
2022/03/29 07:48:45;;;;;;;64.65;36.05;;;;;;;;;;5096284;28;20079;-64
2022/03/29 07:51:12;;;;;;;67.45;38.55;;;;;;;;;;5108240;28;20050;-65
2022/03/29 07:53:38;;;;;;;69.38;37.80;;;;;;;;;;5110748;28;20030;-64
2022/03/29 07:56:04;;;;;;;78.40;41.90;;;;;;;;;;5109448;28;20111;-64
2022/03/29 07:58:29;;;;;;;78.70;42.30;;;;;;;;;;5113553;28;20048;-64
2022/03/29 08:00:54;;;;;;;83.93;43.97;;;;;;;;;;5113622;28;20508;-65
2022/03/29 08:03:21;;;;;;;79.18;42.45;;;;;;;;;;5094094;28;20483;-64
2022/03/29 08:05:47;;;;;;;77.75;41.97;;;;;;;;;;5102833;28;20020;-64
2022/03/29 08:08:16;;;;;;;80.38;44.50;;;;;;;;;;5102798;28;20055;-65
2022/03/29 08:10:42;;;;;;;79.25;43.65;;;;;;;;;;5106782;28;20421;-65
2022/03/29 08:13:08;;;;;;;76.75;43.55;;;;;;;;;;5102666;28;20486;-65
2022/03/29 08:15:33;;;;;;;82.20;45.25;;;;;;;;;;5114414;28;20483;-64
2022/03/29 08:17:59;;;;;;;82.75;46.20;;;;;;;;;;5109497;28;20028;-65
2022/03/29 08:20:24;;;;;;;82.07;44.30;;;;;;;;;;5104795;28;20076;-65
2022/03/29 08:22:50;;;;;;;74.28;42.47;;;;;;;;;;5105875;28;20027;-65
2022/03/29 08:25:15;;;;;;;69.53;39.95;;;;;;;;;;5113410;28;20132;-65
2022/03/29 08:27:41;;;;;;;69.75;41.17;;;;;;;;;;5106905;27;20455;-65
2022/03/29 08:30:07;;;;;;;77.15;43.28;;;;;;;;;;5110077;28;20023;-65
2022/03/29 08:32:32;;;;;;;69.53;41.67;;;;;;;;;;5108775;28;20026;-65
2022/03/29 08:34:58;;;;;;;71.10;41.83;;;;;;;;;;5107834;28;20015;-65
2022/03/29 08:37:24;;;;;;;68.82;42.90;;;;;;;;;;5111081;28;20024;-65
2022/03/29 08:39:49;;;;;;;67.57;41.97;;;;;;;;;;5111349;28;20031;-65
2022/03/29 08:42:14;;;;;;;63.42;38.90;;;;;;;;;;5110306;28;20024;-65
2022/03/29 08:44:39;;;;;;;67.50;41.88;;;;;;;;;;5112005;28;20065;-65
2022/03/29 08:47:08;;;;;;;59.08;39.05;;;;;;;;;;5109875;28;20019;-65
2022/03/29 08:49:33;;;;;;;59.25;38.42;;;;;;;;;;5096334;28;20020;-65
2022/03/29 08:51:59;;;;;;;53.25;35.50;;;;;;;;;;5113240;28;20031;-65
2022/03/29 08:54:24;;;;;;;54.88;37.10;;;;;;;;;;5104927;28;20032;-65
2022/03/29 08:56:49;;;;;;;55.70;37.45;;;;;;;;;;5099593;28;20495;-66
2022/03/29 08:59:15;;;;;;;62.47;41.63;;;;;;;;;;5113245;28;20023;-66
2022/03/29 09:01:40;;;;;;;66.68;40.17;;;;;;;;;;5111245;28;20467;-65
2022/03/29 09:04:06;;;;;;;64.53;40.97;;;;;;;;;;5105279;28;20056;-66
2022/03/29 09:06:32;;;;;;;59.90;38.17;;;;;;;;;;5100230;28;20035;-67
2022/03/29 09:08:57;;;;;;;62.88;41.13;;;;;;;;;;5109983;28;20618;-66
2022/03/29 09:11:22;;;;;;;68.80;43.30;;;;;;;;;;5096919;28;20080;-66
2022/03/29 09:14:00;;;;;;;65.85;39.80;;;;;;;;;;5101292;28;20020;-66
2022/03/29 09:16:28;;;;;;;63.55;41.45;;;;;;;;;;5110579;28;20657;-67
2022/03/29 09:18:54;;;;;;;64.70;41.20;;;;;;;;;;5111327;28;20027;-66
2022/03/29 09:21:19;;;;;;;64.63;42.15;;;;;;;;;;5097552;28;20044;-66
2022/03/29 09:24:02;;;;;;;68.00;42.45;;;;;;;;;;5098566;28;20047;-66
2022/03/29 09:26:28;;;;;;;68.93;43.50;;;;;;;;;;5107391;28;20020;-66
2022/03/29 09:28:53;;;;;;;66.25;43.00;;;;;;;;;;5112397;28;20030;-66
2022/03/29 09:31:19;;;;;;;65.57;41.22;;;;;;;;;;5101067;28;20073;-66
2022/03/29 09:33:45;;;;;;;63.85;41.05;;;;;;;;;;5093819;28;20173;-66
2022/03/29 09:36:13;;;;;;;54.63;36.33;;;;;;;;;;5108097;28;20514;-66
2022/03/29 09:38:40;;;;;;;55.63;37.28;;;;;;;;;;5108546;28;20027;-66
2022/03/29 09:41:06;;;;;;;52.63;34.22;;;;;;;;;;5104899;28;20019;-65
2022/03/29 09:43:32;;;;;;;39.42;26.67;;;;;;;;;;5102959;28;20024;-65
2022/03/29 09:45:59;;;;;;;43.25;29.58;;;;;;;;;;5107853;28;20319;-67
2022/03/29 09:48:29;;;;;;;37.00;25.65;;;;;;;;;;5105729;28;20019;-66
2022/03/29 09:50:56;;;;;;;38.78;26.05;;;;;;;;;;5111303;28;20027;-66
2022/03/29 09:53:40;;;;;;;40.97;25.67;;;;;;;;;;5109167;28;20074;-66
2022/03/29 09:56:06;;;;;;;41.42;28.02;;;;;;;;;;5094340;28;22086;-66
2022/03/29 09:58:31;;;;;;;41.80;26.67;;;;;;;;;;5103883;28;20415;-66
2022/03/29 10:00:57;;;;;;;40.97;28.35;;;;;;;;;;5111713;28;20027;-67
2022/03/29 10:03:26;;;;;;;38.92;26.30;;;;;;;;;;5111605;28;20059;-66
2022/03/29 10:05:53;;;;;;;43.08;28.20;;;;;;;;;;5110483;28;20058;-67
2022/03/29 10:11:07;;;;;;;40.67;27.70;;;;;;;;;;5108808;28;20546;-66
2022/03/29 10:13:32;;;;;;;40.88;27.80;;;;;;;;;;5098053;28;20055;-66
2022/03/29 10:16:00;;;;;;;39.30;28.17;;;;;;;;;;5112125;28;20122;-66
2022/03/29 10:18:26;;;;;;;41.67;27.92;;;;;;;;;;5103974;28;20071;-67
2022/03/29 10:20:52;;;;;;;40.97;28.00;;;;;;;;;;5108486;28;20555;-66
2022/03/29 10:23:19;;;;;;;47.08;30.20;;;;;;;;;;5095895;28;20091;-66
2022/03/29 10:25:45;;;;;;;45.05;29.40;;;;;;;;;;5103154;28;20532;-66
2022/03/29 10:28:10;;;;;;;39.33;28.63;;;;;;;;;;5104635;28;20094;-66
2022/03/29 10:30:36;;;;;;;44.13;28.10;;;;;;;;;;5107590;28;20114;-67
2022/03/29 10:33:37;;;;;;;43.97;29.27;;;;;;;;;;5108687;28;20023;-67
2022/03/29 10:36:12;;;;;;;40.15;26.77;;;;;;;;;;5024393;28;20030;-67
2022/03/29 10:38:46;;;;;;;40.53;28.15;;;;;;;;;;5025279;28;20041;-66
2022/03/29 10:41:26;;;;;;;38.95;26.75;;;;;;;;;;4998295;28;20029;-66
2022/03/29 10:44:02;;;;;;;42.78;28.58;;;;;;;;;;5017168;28;20057;-66
2022/03/29 10:46:34;;;;;;;42.53;28.60;;;;;;;;;;5013992;28;20034;-66
2022/03/29 10:49:14;;;;;;;41.83;28.52;;;;;;;;;;5015686;28;20026;-67
2022/03/29 10:51:39;;;;;;;42.10;28.75;;;;;;;;;;5023999;28;20092;-66
2022/03/29 10:54:23;;;;;;;45.08;30.05;;;;;;;;;;5028931;28;20030;-65
2022/03/29 10:56:58;;;;;;;49.88;32.28;;;;;;;;;;5022047;28;20053;-67
2022/03/29 10:59:24;;;;;;;53.28;34.13;;;;;;;;;;5020777;28;20069;-68
2022/03/29 11:02:10;;;;;;;51.63;34.60;;;;;;;;;;5027517;28;20033;-67
2022/03/29 11:04:35;;;;;;;;;;;;;;;;;;5019583;28;20029;-66
2022/03/29 11:07:06;;;;;;;56.72;36.53;;;;;;;;;;5011299;28;20023;-67
2022/03/29 11:09:32;;;;;;;52.85;33.70;;;;;;;;;;5046881;28;20108;-67
2022/03/29 11:11:57;;;;;;;59.95;38.58;;;;;;;;;;5110212;28;20426;-67
2022/03/29 11:14:39;;;;;;;58.10;37.58;;;;;;;;;;5107974;28;20040;-66
2022/03/29 11:17:04;;;;;;;61.45;38.35;;;;;;;;;;5109961;28;20460;-67
2022/03/29 11:19:46;;;;;;;58.17;36.93;;;;;;;;;;5099191;28;20250;-67
2022/03/29 11:22:29;;;;;;;58.47;37.85;;;;;;;;;;5106829;28;20266;-66
2022/03/29 11:24:56;;;;;;;59.70;37.65;;;;;;;;;;5104187;28;20030;-67
2022/03/29 11:27:22;;;;;;;60.88;39.90;;;;;;;;;;5102031;28;20497;-67
2022/03/29 11:29:48;;;;;;;61.95;40.42;;;;;;;;;;5113027;28;20028;-67
2022/03/29 11:32:17;;;;;;;62.10;39.28;;;;;;;;;;5113071;28;20106;-68
2022/03/29 11:34:42;;;;;;;63.63;39.42;;;;;;;;;;5105631;28;20031;-68
2022/03/29 11:37:07;;;;;;;63.85;39.22;;;;;;;;;;5114571;28;20181;-67
2022/03/29 11:39:33;;;;;;;61.38;38.90;;;;;;;;;;5115201;28;20448;-66
2022/03/29 11:41:58;;;;;;;57.45;40.05;;;;;;;;;;5097916;28;20558;-66
2022/03/29 11:44:24;;;;;;;58.65;39.50;;;;;;;;;;5099662;28;20039;-68
2022/03/29 11:46:50;;;;;;;63.97;42.30;;;;;;;;;;5108931;28;20026;-67
2022/03/29 11:49:17;;;;;;;60.30;41.25;;;;;;;;;;5114191;28;20386;-66
2022/03/29 11:51:42;;;;;;;59.53;40.67;;;;;;;;;;5109399;28;20043;-67
2022/03/29 11:54:07;;;;;;;59.70;41.78;;;;;;;;;;5105650;28;20058;-67
2022/03/29 11:56:38;;;;;;;62.22;42.28;;;;;;;;;;5109317;28;20372;-66
2022/03/29 11:59:04;;;;;;;58.55;40.25;;;;;;;;;;5111820;28;20039;-67
2022/03/29 12:01:31;;;;;;;55.25;39.13;;;;;;;;;;5105301;28;20507;-66
2022/03/29 12:04:01;;;;;;;59.45;38.00;;;;;;;;;;5113338;28;20015;-67
2022/03/29 12:06:27;;;;;;;54.78;41.28;;;;;;;;;;5099541;28;20012;-67
2022/03/29 12:08:56;;;;;;;56.13;40.22;;;;;;;;;;5107295;28;20106;-67
2022/03/29 12:11:26;;;;;;;56.53;41.08;;;;;;;;;;5094777;28;20081;-67
2022/03/29 12:14:06;;;;;;;53.58;38.40;;;;;;;;;;5104056;28;20023;-67
2022/03/29 12:16:33;;;;;;;53.15;38.50;;;;;;;;;;5107711;28;20016;-67
2022/03/29 12:18:58;;;;;;;52.17;39.08;;;;;;;;;;5113751;28;20387;-65
2022/03/29 12:21:24;;;;;;;53.58;38.72;;;;;;;;;;5114408;28;20035;-66
2022/03/29 12:23:56;;;;;;;55.05;39.60;;;;;;;;;;5111848;27;20376;-66
2022/03/29 12:26:22;;;;;;;57.35;40.35;;;;;;;;;;5107106;27;20049;-66
2022/03/29 12:28:47;;;;;;;57.17;41.50;;;;;;;;;;5110663;28;20048;-66
2022/03/29 12:31:14;;;;;;;56.00;41.40;;;;;;;;;;5114079;28;20027;-66
2022/03/29 12:33:40;;;;;;;54.50;39.15;;;;;;;;;;5106349;28;20028;-66
2022/03/29 12:36:07;;;;;;;56.72;41.42;;;;;;;;;;5108325;28;20024;-67
2022/03/29 12:38:38;;;;;;;53.97;40.90;;;;;;;;;;5112139;28;20019;-66
2022/03/29 12:41:04;;;;;;;54.08;38.72;;;;;;;;;;5110184;28;20050;-67
2022/03/29 12:43:33;;;;;;;51.45;39.58;;;;;;;;;;5107017;28;20557;-67
2022/03/29 12:45:58;;;;;;;51.17;39.05;;;;;;;;;;5113543;28;20011;-67
2022/03/29 12:48:25;;;;;;;54.03;39.13;;;;;;;;;;5101105;28;20024;-67
2022/03/29 12:50:51;;;;;;;53.50;40.10;;;;;;;;;;5110650;28;20124;-68
2022/03/29 12:53:16;;;;;;;54.95;40.38;;;;;;;;;;5095390;28;20122;-68
2022/03/29 12:55:52;;;;;;;50.03;37.70;;;;;;;;;;5095498;28;20107;-66
2022/03/29 12:58:28;;;;;;;52.15;37.50;;;;;;;;;;5110304;28;20339;-67
2022/03/29 13:00:53;;;;;;;49.83;37.83;;;;;;;;;;5113182;28;20080;-66
2022/03/29 13:03:19;;;;;;;48.97;38.23;;;;;;;;;;5113340;28;20027;-67
2022/03/29 13:05:47;;;;;;;52.20;39.75;;;;;;;;;;5111276;28;20276;-68
2022/03/29 13:08:18;;;;;;;47.22;37.40;;;;;;;;;;5109365;28;20098;-68
2022/03/29 13:10:44;;;;;;;50.25;38.35;;;;;;;;;;5092624;28;20081;-68
2022/03/29 13:13:24;;;;;;;48.65;37.00;;;;;;;;;;5094170;28;20480;-68
2022/03/29 13:15:50;;;;;;;47.35;35.55;;;;;;;;;;5112984;28;20019;-68
2022/03/29 13:18:35;;;;;;;49.28;36.58;;;;;;;;;;5112622;28;20042;-67
2022/03/29 13:21:19;;;;;;;46.30;35.78;;;;;;;;;;5097939;28;20629;-68
2022/03/29 13:23:44;;;;;;;44.53;32.58;;;;;;;;;;5092868;28;20103;-67
2022/03/29 13:26:11;;;;;;;45.83;35.10;;;;;;;;;;5095339;28;20103;-67
2022/03/29 13:28:37;;;;;;;44.42;33.30;;;;;;;;;;5093760;28;20122;-68
2022/03/29 13:31:03;;;;;;;44.20;34.05;;;;;;;;;;5104401;28;20451;-67
2022/03/29 13:33:28;;;;;;;43.08;33.88;;;;;;;;;;5112727;28;20471;-68
2022/03/29 13:35:53;;;;;;;44.97;34.23;;;;;;;;;;5109079;28;20107;-68
2022/03/29 13:38:19;;;;;;;44.97;34.53;;;;;;;;;;5100294;28;20335;-68
2022/03/29 13:40:45;;;;;;;45.40;33.75;;;;;;;;;;5100297;28;20031;-68
2022/03/29 13:43:10;;;;;;;48.05;34.20;;;;;;;;;;5103800;28;20487;-67
2022/03/29 13:45:36;;;;;;;45.92;32.58;;;;;;;;;;5112755;28;20019;-68
2022/03/29 13:48:03;;;;;;;47.37;34.33;;;;;;;;;;5112381;28;20053;-67
2022/03/29 13:50:28;;;;;;;51.65;35.63;;;;;;;;;;5096083;28;20313;-67
2022/03/29 13:52:54;;;;;;;48.97;34.95;;;;;;;;;;5112558;28;20112;-68
2022/03/29 13:55:19;;;;;;;48.55;34.20;;;;;;;;;;5112179;28;20039;-68
2022/03/29 13:57:45;;;;;;;50.40;35.00;;;;;;;;;;5104159;28;20039;-67
2022/03/29 14:00:12;;;;;;;48.67;33.58;;;;;;;;;;5111559;28;20108;-68
2022/03/29 14:02:37;;;;;;;47.00;33.35;;;;;;;;;;5107260;28;20015;-67
2022/03/29 14:05:02;;;;;;;49.65;33.17;;;;;;;;;;5108953;28;20046;-67
2022/03/29 14:07:28;;;;;;;48.42;32.40;;;;;;;;;;5111305;28;20069;-67
2022/03/29 14:09:53;;;;;;;46.85;32.85;;;;;;;;;;5105367;28;20028;-68
2022/03/29 14:12:18;;;;;;;51.35;34.65;;;;;;;;;;5103727;28;20038;-68
2022/03/29 14:14:43;;;;;;;50.85;34.65;;;;;;;;;;5105246;28;20028;-69
2022/03/29 14:17:09;;;;;;;49.92;35.38;;;;;;;;;;5111449;28;20056;-65
2022/03/29 14:19:34;;;;;;;50.33;34.08;;;;;;;;;;5100563;28;20192;-70
2022/03/29 14:22:00;;;;;;;53.72;36.20;;;;;;;;;;5110607;28;20503;-70
2022/03/29 14:24:26;;;;;;;53.90;35.03;;;;;;;;;;5103088;28;20016;-70
2022/03/29 14:26:53;;;;;;;51.40;35.42;;;;;;;;;;5100832;28;20065;-69